sensor_id;sensor_type;location;lat;lon;timestamp;pressure;altitude;pressure_sealevel;temperature;humidity
35918;BME280;22011;59.912;30.300;2023-01-08T00:01:02;102996.06;;;-13.13;52.37
35918;BME280;22011;59.912;30.300;2023-01-08T00:03:29;102998.34;;;-13.25;52.74
35918;BME280;22011;59.912;30.300;2023-01-08T00:05:59;103000.28;;;-13.16;54.21
35918;BME280;22011;59.912;30.300;2023-01-08T00:08:27;102998.09;;;-13.00;54.84
35918;BME280;22011;59.912;30.300;2023-01-08T00:10:55;103006.38;;;-13.10;53.25
35918;BME280;22011;59.912;30.300;2023-01-08T00:13:23;102987.47;;;-13.13;53.69
35918;BME280;22011;59.912;30.300;2023-01-08T00:15:51;102984.31;;;-13.03;53.81
35918;BME280;22011;59.912;30.300;2023-01-08T00:18:20;102981.13;;;-12.95;52.33
35918;BME280;22011;59.912;30.300;2023-01-08T00:20:49;102979.75;;;-12.80;53.17
35918;BME280;22011;59.912;30.300;2023-01-08T00:23:17;102978.72;;;-12.87;53.09
35918;BME280;22011;59.912;30.300;2023-01-08T00:25:45;102974.38;;;-12.90;52.42
35918;BME280;22011;59.912;30.300;2023-01-08T00:28:13;102979.19;;;-13.03;52.26
35918;BME280;22011;59.912;30.300;2023-01-08T00:30:41;102975.69;;;-13.07;51.95
35918;BME280;22011;59.912;30.300;2023-01-08T00:33:09;102972.44;;;-13.00;52.18
35918;BME280;22011;59.912;30.300;2023-01-08T00:35:38;102955.19;;;-13.05;51.67
35918;BME280;22011;59.912;30.300;2023-01-08T00:38:06;102964.34;;;-13.16;51.61
35918;BME280;22011;59.912;30.300;2023-01-08T00:40:34;102961.59;;;-13.24;51.50
35918;BME280;22011;59.912;30.300;2023-01-08T00:43:02;102959.72;;;-13.31;51.51
35918;BME280;22011;59.912;30.300;2023-01-08T00:45:30;102954.41;;;-13.37;50.94
35918;BME280;22011;59.912;30.300;2023-01-08T00:47:57;102950.00;;;-13.43;50.84
35918;BME280;22011;59.912;30.300;2023-01-08T00:50:25;102946.44;;;-13.48;50.88
35918;BME280;22011;59.912;30.300;2023-01-08T00:52:53;102946.50;;;-13.46;51.70
35918;BME280;22011;59.912;30.300;2023-01-08T00:55:21;102941.31;;;-13.48;52.13
35918;BME280;22011;59.912;30.300;2023-01-08T00:57:48;102948.72;;;-13.60;51.04
35918;BME280;22011;59.912;30.300;2023-01-08T01:00:16;102950.03;;;-13.76;51.24
35918;BME280;22011;59.912;30.300;2023-01-08T01:02:44;102947.81;;;-13.94;51.50
35918;BME280;22011;59.912;30.300;2023-01-08T01:05:12;102952.97;;;-13.92;52.82
35918;BME280;22011;59.912;30.300;2023-01-08T01:07:42;102951.09;;;-13.68;53.50
35918;BME280;22011;59.912;30.300;2023-01-08T01:10:12;102950.13;;;-13.71;52.92
35918;BME280;22011;59.912;30.300;2023-01-08T01:12:40;102952.69;;;-13.71;52.45
35918;BME280;22011;59.912;30.300;2023-01-08T01:15:11;102945.84;;;-13.72;52.79
35918;BME280;22011;59.912;30.300;2023-01-08T01:17:40;102944.97;;;-13.73;52.76
35918;BME280;22011;59.912;30.300;2023-01-08T01:20:10;102950.38;;;-13.62;53.09
35918;BME280;22011;59.912;30.300;2023-01-08T01:22:39;102953.84;;;-13.60;52.79
35918;BME280;22011;59.912;30.300;2023-01-08T01:25:08;102957.28;;;-13.60;53.14
35918;BME280;22011;59.912;30.300;2023-01-08T01:27:37;102955.69;;;-13.56;52.80
35918;BME280;22011;59.912;30.300;2023-01-08T01:30:06;102958.31;;;-13.53;53.29
35918;BME280;22011;59.912;30.300;2023-01-08T01:32:33;102949.72;;;-13.55;53.60
35918;BME280;22011;59.912;30.300;2023-01-08T01:35:01;102948.19;;;-13.47;53.86
35918;BME280;22011;59.912;30.300;2023-01-08T01:37:29;102941.41;;;-13.45;53.65
35918;BME280;22011;59.912;30.300;2023-01-08T01:39:56;102941.31;;;-13.48;53.53
35918;BME280;22011;59.912;30.300;2023-01-08T01:42:24;102934.53;;;-13.46;54.10
35918;BME280;22011;59.912;30.300;2023-01-08T01:45:17;102949.28;;;-13.37;53.82
35918;BME280;22011;59.912;30.300;2023-01-08T01:47:48;102945.84;;;-13.38;53.88
35918;BME280;22011;59.912;30.300;2023-01-08T01:50:20;102942.66;;;-13.29;53.87
35918;BME280;22011;59.912;30.300;2023-01-08T01:52:54;102955.44;;;-13.31;52.75
35918;BME280;22011;59.912;30.300;2023-01-08T01:55:25;102955.06;;;-13.46;52.78
35918;BME280;22011;59.912;30.300;2023-01-08T01:57:58;102966.22;;;-13.44;53.47
35918;BME280;22011;59.912;30.300;2023-01-08T02:00:29;102972.88;;;-13.50;53.08
35918;BME280;22011;59.912;30.300;2023-01-08T02:02:58;102965.59;;;-13.68;53.01
35918;BME280;22011;59.912;30.300;2023-01-08T02:05:31;102962.88;;;-13.74;53.57
35918;BME280;22011;59.912;30.300;2023-01-08T02:08:05;102953.56;;;-13.71;54.47
35918;BME280;22011;59.912;30.300;2023-01-08T02:10:37;102957.84;;;-13.71;53.92
35918;BME280;22011;59.912;30.300;2023-01-08T02:13:10;102944.28;;;-13.67;54.37
35918;BME280;22011;59.912;30.300;2023-01-08T02:15:47;102929.06;;;-13.61;54.39
35918;BME280;22011;59.912;30.300;2023-01-08T02:18:19;102926.03;;;-13.78;54.01
35918;BME280;22011;59.912;30.300;2023-01-08T02:20:51;102919.94;;;-13.83;54.10
35918;BME280;22011;59.912;30.300;2023-01-08T02:23:26;102922.53;;;-13.81;54.29
35918;BME280;22011;59.912;30.300;2023-01-08T02:26:09;102919.19;;;-13.79;54.17
35918;BME280;22011;59.912;30.300;2023-01-08T02:28:41;102924.97;;;-13.86;54.29
35918;BME280;22011;59.912;30.300;2023-01-08T02:31:11;102909.50;;;-13.89;54.30
35918;BME280;22011;59.912;30.300;2023-01-08T02:33:39;102907.97;;;-13.82;54.42
35918;BME280;22011;59.912;30.300;2023-01-08T02:36:17;102903.88;;;-13.76;54.50
35918;BME280;22011;59.912;30.300;2023-01-08T02:41:56;102898.72;;;-13.77;54.42
35918;BME280;22011;59.912;30.300;2023-01-08T02:44:38;102900.38;;;-13.79;54.00
35918;BME280;22011;59.912;30.300;2023-01-08T02:47:18;102886.63;;;-13.83;53.88
35918;BME280;22011;59.912;30.300;2023-01-08T02:49:55;102884.06;;;-13.83;53.58
35918;BME280;22011;59.912;30.300;2023-01-08T02:52:28;102881.56;;;-13.80;53.72
35918;BME280;22011;59.912;30.300;2023-01-08T02:54:58;102880.78;;;-13.77;53.91
35918;BME280;22011;59.912;30.300;2023-01-08T02:57:31;102893.94;;;-13.64;54.70
35918;BME280;22011;59.912;30.300;2023-01-08T02:59:59;102886.34;;;-13.61;54.71
35918;BME280;22011;59.912;30.300;2023-01-08T03:02:30;102883.25;;;-13.46;54.70
35918;BME280;22011;59.912;30.300;2023-01-08T03:05:02;102874.78;;;-13.43;54.18
35918;BME280;22011;59.912;30.300;2023-01-08T03:07:34;102861.31;;;-13.35;53.96
35918;BME280;22011;59.912;30.300;2023-01-08T03:10:02;102867.22;;;-13.37;53.77
35918;BME280;22011;59.912;30.300;2023-01-08T03:12:42;102860.59;;;-13.29;53.04
35918;BME280;22011;59.912;30.300;2023-01-08T03:15:13;102862.25;;;-13.31;53.13
35918;BME280;22011;59.912;30.300;2023-01-08T03:17:45;102871.69;;;-13.30;52.72
35918;BME280;22011;59.912;30.300;2023-01-08T03:20:16;102860.44;;;-13.35;52.22
35918;BME280;22011;59.912;30.300;2023-01-08T03:22:47;102860.34;;;-13.40;52.39
35918;BME280;22011;59.912;30.300;2023-01-08T03:25:17;102849.09;;;-13.45;52.94
35918;BME280;22011;59.912;30.300;2023-01-08T03:27:51;102843.19;;;-13.42;53.13
35918;BME280;22011;59.912;30.300;2023-01-08T03:30:21;102849.28;;;-13.37;53.57
35918;BME280;22011;59.912;30.300;2023-01-08T03:32:51;102849.44;;;-13.31;53.50
35918;BME280;22011;59.912;30.300;2023-01-08T03:35:22;102852.91;;;-13.29;53.44
35918;BME280;22011;59.912;30.300;2023-01-08T03:37:54;102857.13;;;-13.31;52.97
35918;BME280;22011;59.912;30.300;2023-01-08T03:40:25;102856.16;;;-13.36;52.77
35918;BME280;22011;59.912;30.300;2023-01-08T03:42:55;102850.00;;;-13.43;53.34
35918;BME280;22011;59.912;30.300;2023-01-08T03:45:24;102853.34;;;-13.45;53.39
35918;BME280;22011;59.912;30.300;2023-01-08T03:47:55;102849.22;;;-13.40;53.70
35918;BME280;22011;59.912;30.300;2023-01-08T03:50:25;102855.28;;;-13.37;53.47
35918;BME280;22011;59.912;30.300;2023-01-08T03:52:54;102853.47;;;-13.41;53.52
35918;BME280;22011;59.912;30.300;2023-01-08T03:55:21;102859.50;;;-13.39;54.43
35918;BME280;22011;59.912;30.300;2023-01-08T03:57:49;102847.69;;;-13.32;53.63
35918;BME280;22011;59.912;30.300;2023-01-08T04:00:18;102838.16;;;-13.38;53.09
35918;BME280;22011;59.912;30.300;2023-01-08T04:02:45;102837.09;;;-13.46;52.80
35918;BME280;22011;59.912;30.300;2023-01-08T04:05:13;102844.09;;;-13.40;53.55
35918;BME280;22011;59.912;30.300;2023-01-08T04:07:40;102852.69;;;-13.38;53.50
35918;BME280;22011;59.912;30.300;2023-01-08T04:10:08;102854.56;;;-13.31;54.06
35918;BME280;22011;59.912;30.300;2023-01-08T04:12:36;102840.25;;;-13.22;54.48
35918;BME280;22011;59.912;30.300;2023-01-08T04:15:04;102831.09;;;-13.09;54.91
35918;BME280;22011;59.912;30.300;2023-01-08T04:17:33;102841.56;;;-13.00;54.84
35918;BME280;22011;59.912;30.300;2023-01-08T04:20:01;102834.00;;;-12.94;54.54
35918;BME280;22011;59.912;30.300;2023-01-08T04:22:28;102833.19;;;-12.93;54.38
35918;BME280;22011;59.912;30.300;2023-01-08T04:24:56;102834.75;;;-12.99;54.19
35918;BME280;22011;59.912;30.300;2023-01-08T04:27:23;102835.63;;;-12.97;54.40
35918;BME280;22011;59.912;30.300;2023-01-08T04:29:51;102820.34;;;-12.93;54.58
35918;BME280;22011;59.912;30.300;2023-01-08T04:32:18;102811.91;;;-12.87;54.71
35918;BME280;22011;59.912;30.300;2023-01-08T04:34:47;102810.28;;;-12.83;54.12
35918;BME280;22011;59.912;30.300;2023-01-08T04:37:15;102818.63;;;-12.94;54.37
35918;BME280;22011;59.912;30.300;2023-01-08T04:39:42;102810.00;;;-12.96;54.21
35918;BME280;22011;59.912;30.300;2023-01-08T04:42:10;102809.09;;;-12.99;54.17
35918;BME280;22011;59.912;30.300;2023-01-08T04:44:37;102811.63;;;-13.01;54.81
35918;BME280;22011;59.912;30.300;2023-01-08T04:47:05;102807.28;;;-13.03;54.75
35918;BME280;22011;59.912;30.300;2023-01-08T04:49:32;102805.63;;;-13.01;54.92
35918;BME280;22011;59.912;30.300;2023-01-08T04:52:01;102800.63;;;-12.95;55.01
35918;BME280;22011;59.912;30.300;2023-01-08T04:54:28;102806.78;;;-12.87;54.62
35918;BME280;22011;59.912;30.300;2023-01-08T04:56:56;102799.94;;;-12.86;54.35
35918;BME280;22011;59.912;30.300;2023-01-08T04:59:23;102795.53;;;-12.92;53.81
35918;BME280;22011;59.912;30.300;2023-01-08T05:01:51;102796.22;;;-13.01;53.79
35918;BME280;22011;59.912;30.300;2023-01-08T05:04:18;102804.00;;;-12.96;54.17
35918;BME280;22011;59.912;30.300;2023-01-08T05:06:46;102805.88;;;-12.89;54.01
35918;BME280;22011;59.912;30.300;2023-01-08T05:09:15;102802.59;;;-12.82;53.28
35918;BME280;22011;59.912;30.300;2023-01-08T05:11:42;102803.41;;;-12.84;53.83
35918;BME280;22011;59.912;30.300;2023-01-08T05:14:10;102794.91;;;-12.82;54.08
35918;BME280;22011;59.912;30.300;2023-01-08T05:16:37;102788.91;;;-12.82;55.00
35918;BME280;22011;59.912;30.300;2023-01-08T05:19:05;102781.16;;;-12.85;55.01
35918;BME280;22011;59.912;30.300;2023-01-08T05:21:32;102784.59;;;-12.83;55.25
35918;BME280;22011;59.912;30.300;2023-01-08T05:24:00;102790.66;;;-12.80;55.04
35918;BME280;22011;59.912;30.300;2023-01-08T05:26:29;102794.06;;;-12.81;55.03
35918;BME280;22011;59.912;30.300;2023-01-08T05:28:56;102784.63;;;-12.82;55.13
35918;BME280;22011;59.912;30.300;2023-01-08T05:31:24;102783.06;;;-12.75;54.85
35918;BME280;22011;59.912;30.300;2023-01-08T05:33:52;102783.97;;;-12.73;54.58
35918;BME280;22011;59.912;30.300;2023-01-08T05:36:19;102783.25;;;-12.66;54.20
35918;BME280;22011;59.912;30.300;2023-01-08T05:38:47;102791.66;;;-12.73;54.18
35918;BME280;22011;59.912;30.300;2023-01-08T05:41:14;102791.84;;;-12.64;54.15
35918;BME280;22011;59.912;30.300;2023-01-08T05:43:43;102805.47;;;-12.68;54.27
35918;BME280;22011;59.912;30.300;2023-01-08T05:46:10;102807.06;;;-12.73;54.15
35918;BME280;22011;59.912;30.300;2023-01-08T05:48:38;102814.63;;;-12.79;54.39
35918;BME280;22011;59.912;30.300;2023-01-08T05:51:05;102810.25;;;-12.85;54.57
35918;BME280;22011;59.912;30.300;2023-01-08T05:53:33;102816.25;;;-12.84;54.41
35918;BME280;22011;59.912;30.300;2023-01-08T05:56:02;102826.31;;;-12.94;54.16
35918;BME280;22011;59.912;30.300;2023-01-08T05:58:30;102825.34;;;-12.99;54.57
35918;BME280;22011;59.912;30.300;2023-01-08T06:01:02;102828.97;;;-12.89;54.57
35918;BME280;22011;59.912;30.300;2023-01-08T06:03:30;102811.81;;;-12.92;55.02
35918;BME280;22011;59.912;30.300;2023-01-08T06:05:59;102816.19;;;-12.88;54.80
35918;BME280;22011;59.912;30.300;2023-01-08T06:08:26;102816.19;;;-12.88;54.36
35918;BME280;22011;59.912;30.300;2023-01-08T06:10:54;102812.72;;;-12.90;54.71
35918;BME280;22011;59.912;30.300;2023-01-08T06:13:24;102811.88;;;-12.89;54.53
35918;BME280;22011;59.912;30.300;2023-01-08T06:15:52;102808.53;;;-12.84;54.77
35918;BME280;22011;59.912;30.300;2023-01-08T06:18:20;102806.13;;;-12.77;55.32
35918;BME280;22011;59.912;30.300;2023-01-08T06:20:48;102802.00;;;-12.70;55.29
35918;BME280;22011;59.912;30.300;2023-01-08T06:23:15;102795.28;;;-12.64;55.16
35918;BME280;22011;59.912;30.300;2023-01-08T06:25:43;102796.38;;;-12.52;54.77
35918;BME280;22011;59.912;30.300;2023-01-08T06:28:10;102790.38;;;-12.51;54.39
35918;BME280;22011;59.912;30.300;2023-01-08T06:30:38;102779.22;;;-12.53;54.42
35918;BME280;22011;59.912;30.300;2023-01-08T06:33:05;102782.56;;;-12.58;54.79
35918;BME280;22011;59.912;30.300;2023-01-08T06:35:34;102779.06;;;-12.61;54.48
35918;BME280;22011;59.912;30.300;2023-01-08T06:38:02;102779.84;;;-12.65;55.11
35918;BME280;22011;59.912;30.300;2023-01-08T06:40:29;102790.13;;;-12.65;55.02
35918;BME280;22011;59.912;30.300;2023-01-08T06:43:00;102786.66;;;-12.67;55.05
35918;BME280;22011;59.912;30.300;2023-01-08T06:45:27;102781.53;;;-12.67;55.53
35918;BME280;22011;59.912;30.300;2023-01-08T06:47:59;102780.03;;;-12.56;54.82
35918;BME280;22011;59.912;30.300;2023-01-08T06:50:27;102776.50;;;-12.61;54.34
35918;BME280;22011;59.912;30.300;2023-01-08T06:52:56;102779.09;;;-12.60;54.17
35918;BME280;22011;59.912;30.300;2023-01-08T06:55:24;102775.78;;;-12.54;54.90
35918;BME280;22011;59.912;30.300;2023-01-08T06:57:53;102781.81;;;-12.52;54.22
35918;BME280;22011;59.912;30.300;2023-01-08T07:00:21;102791.97;;;-12.58;53.50
35918;BME280;22011;59.912;30.300;2023-01-08T07:02:51;102794.41;;;-12.64;52.79
35918;BME280;22011;59.912;30.300;2023-01-08T07:05:19;102798.53;;;-12.72;52.82
35918;BME280;22011;59.912;30.300;2023-01-08T07:07:46;102794.09;;;-12.79;52.70
35918;BME280;22011;59.912;30.300;2023-01-08T07:10:15;102802.56;;;-12.83;52.75
35918;BME280;22011;59.912;30.300;2023-01-08T07:12:43;102801.69;;;-12.85;52.73
35918;BME280;22011;59.912;30.300;2023-01-08T07:15:10;102795.66;;;-12.88;52.85
35918;BME280;22011;59.912;30.300;2023-01-08T07:17:38;102781.03;;;-12.92;52.99
35918;BME280;22011;59.912;30.300;2023-01-08T07:20:06;102771.69;;;-12.88;52.81
35918;BME280;22011;59.912;30.300;2023-01-08T07:22:34;102769.22;;;-12.83;52.75
35918;BME280;22011;59.912;30.300;2023-01-08T07:25:02;102776.81;;;-12.88;52.63
35918;BME280;22011;59.912;30.300;2023-01-08T07:27:31;102775.31;;;-12.78;53.33
35918;BME280;22011;59.912;30.300;2023-01-08T07:29:59;102777.13;;;-12.73;52.42
35918;BME280;22011;59.912;30.300;2023-01-08T07:32:26;102773.72;;;-12.72;52.21
35918;BME280;22011;59.912;30.300;2023-01-08T07:34:54;102771.13;;;-12.73;52.39
35918;BME280;22011;59.912;30.300;2023-01-08T07:37:24;102756.94;;;-12.54;53.25
35918;BME280;22011;59.912;30.300;2023-01-08T07:39:51;102753.47;;;-12.58;53.27
35918;BME280;22011;59.912;30.300;2023-01-08T07:42:19;102759.50;;;-12.56;53.56
35918;BME280;22011;59.912;30.300;2023-01-08T07:44:48;102762.03;;;-12.58;54.12
35918;BME280;22011;59.912;30.300;2023-01-08T07:47:15;102750.09;;;-12.56;54.67
35918;BME280;22011;59.912;30.300;2023-01-08T07:49:43;102750.06;;;-12.57;54.58
35918;BME280;22011;59.912;30.300;2023-01-08T07:52:10;102762.94;;;-12.54;55.01
35918;BME280;22011;59.912;30.300;2023-01-08T07:54:38;102764.75;;;-12.50;54.71
35918;BME280;22011;59.912;30.300;2023-01-08T07:57:05;102761.19;;;-12.57;54.38
35918;BME280;22011;59.912;30.300;2023-01-08T07:59:33;102754.25;;;-12.61;54.35
35918;BME280;22011;59.912;30.300;2023-01-08T08:02:02;102753.34;;;-12.64;54.03
35918;BME280;22011;59.912;30.300;2023-01-08T08:04:29;102754.84;;;-12.75;54.21
35918;BME280;22011;59.912;30.300;2023-01-08T08:06:57;102752.22;;;-12.77;54.53
35918;BME280;22011;59.912;30.300;2023-01-08T08:09:24;102759.00;;;-12.80;54.54
35918;BME280;22011;59.912;30.300;2023-01-08T08:11:52;102750.28;;;-12.89;54.39
35918;BME280;22011;59.912;30.300;2023-01-08T08:14:19;102750.13;;;-12.96;54.51
35918;BME280;22011;59.912;30.300;2023-01-08T08:16:47;102748.25;;;-13.05;54.53
35918;BME280;22011;59.912;30.300;2023-01-08T08:19:16;102736.16;;;-13.10;54.58
35918;BME280;22011;59.912;30.300;2023-01-08T08:21:43;102740.38;;;-13.12;54.55
35918;BME280;22011;59.912;30.300;2023-01-08T08:24:11;102746.38;;;-13.12;54.33
35918;BME280;22011;59.912;30.300;2023-01-08T08:26:38;102749.78;;;-13.13;54.40
35918;BME280;22011;59.912;30.300;2023-01-08T08:29:06;102749.53;;;-13.25;54.60
35918;BME280;22011;59.912;30.300;2023-01-08T08:31:33;102759.66;;;-13.31;54.80
35918;BME280;22011;59.912;30.300;2023-01-08T08:34:01;102746.84;;;-13.31;55.15
35918;BME280;22011;59.912;30.300;2023-01-08T08:36:30;102754.59;;;-13.28;55.11
35918;BME280;22011;59.912;30.300;2023-01-08T08:38:57;102751.28;;;-13.24;54.83
35918;BME280;22011;59.912;30.300;2023-01-08T08:41:25;102754.63;;;-13.27;55.01
35918;BME280;22011;59.912;30.300;2023-01-08T08:43:52;102760.56;;;-13.29;55.30
35918;BME280;22011;59.912;30.300;2023-01-08T08:46:20;102772.72;;;-13.20;55.67
35918;BME280;22011;59.912;30.300;2023-01-08T08:48:47;102759.16;;;-13.13;55.51
35918;BME280;22011;59.912;30.300;2023-01-08T08:51:15;102754.19;;;-13.06;55.96
35918;BME280;22011;59.912;30.300;2023-01-08T08:53:44;102759.34;;;-13.06;55.77
35918;BME280;22011;59.912;30.300;2023-01-08T08:56:11;102756.69;;;-13.09;55.64
35918;BME280;22011;59.912;30.300;2023-01-08T08:58:39;102766.94;;;-13.10;55.37
35918;BME280;22011;59.912;30.300;2023-01-08T09:01:07;102763.47;;;-13.12;55.13
35918;BME280;22011;59.912;30.300;2023-01-08T09:03:34;102769.41;;;-13.15;54.79
35918;BME280;22011;59.912;30.300;2023-01-08T09:06:02;102771.97;;;-13.15;54.59
35918;BME280;22011;59.912;30.300;2023-01-08T09:08:30;102761.78;;;-13.12;54.69
35918;BME280;22011;59.912;30.300;2023-01-08T09:11:01;102763.72;;;-13.00;54.59
35918;BME280;22011;59.912;30.300;2023-01-08T09:13:29;102759.50;;;-12.98;54.23
35918;BME280;22011;59.912;30.300;2023-01-08T09:15:57;102748.28;;;-13.03;53.90
35918;BME280;22011;59.912;30.300;2023-01-08T09:18:25;102748.19;;;-13.08;54.06
35918;BME280;22011;59.912;30.300;2023-01-08T09:20:52;102743.03;;;-13.08;54.42
35918;BME280;22011;59.912;30.300;2023-01-08T09:23:20;102741.22;;;-13.13;54.31
35918;BME280;22011;59.912;30.300;2023-01-08T09:25:47;102740.38;;;-13.12;54.62
35918;BME280;22011;59.912;30.300;2023-01-08T09:28:16;102738.78;;;-13.07;54.94
35918;BME280;22011;59.912;30.300;2023-01-08T09:30:43;102737.09;;;-13.05;55.08
35918;BME280;22011;59.912;30.300;2023-01-08T09:33:11;102739.03;;;-12.95;55.14
35918;BME280;22011;59.912;30.300;2023-01-08T09:35:38;102740.09;;;-12.85;55.02
35918;BME280;22011;59.912;30.300;2023-01-08T09:38:07;102735.06;;;-12.79;55.02
35918;BME280;22011;59.912;30.300;2023-01-08T09:40:38;102739.44;;;-12.75;54.98
35918;BME280;22011;59.912;30.300;2023-01-08T09:43:15;102728.31;;;-12.74;55.77
35918;BME280;22011;59.912;30.300;2023-01-08T09:45:48;102729.28;;;-12.69;55.73
35918;BME280;22011;59.912;30.300;2023-01-08T09:48:19;102730.84;;;-12.77;55.51
35918;BME280;22011;59.912;30.300;2023-01-08T09:50:50;102729.13;;;-12.77;55.70
35918;BME280;22011;59.912;30.300;2023-01-08T09:53:18;102726.59;;;-12.75;55.89
35918;BME280;22011;59.912;30.300;2023-01-08T09:55:50;102720.63;;;-12.74;56.19
35918;BME280;22011;59.912;30.300;2023-01-08T09:58:26;102728.44;;;-12.68;56.05
35918;BME280;22011;59.912;30.300;2023-01-08T10:00:58;102726.00;;;-12.62;56.07
35918;BME280;22011;59.912;30.300;2023-01-08T10:03:27;102718.53;;;-12.47;56.28
35918;BME280;22011;59.912;30.300;2023-01-08T10:05:56;102709.97;;;-12.47;56.28
35918;BME280;22011;59.912;30.300;2023-01-08T10:08:23;102705.88;;;-12.36;55.74
35918;BME280;22011;59.912;30.300;2023-01-08T10:10:51;102704.28;;;-12.31;55.71
35918;BME280;22011;59.912;30.300;2023-01-08T10:13:19;102700.09;;;-12.25;55.84
35918;BME280;22011;59.912;30.300;2023-01-08T10:15:46;102697.56;;;-12.23;55.89
35918;BME280;22011;59.912;30.300;2023-01-08T10:18:17;102691.59;;;-12.20;55.63
35918;BME280;22011;59.912;30.300;2023-01-08T10:20:45;102688.97;;;-12.25;55.62
35918;BME280;22011;59.912;30.300;2023-01-08T10:23:15;102692.38;;;-12.26;55.81
35918;BME280;22011;59.912;30.300;2023-01-08T10:25:48;102684.75;;;-12.20;55.87
35918;BME280;22011;59.912;30.300;2023-01-08T10:28:20;102683.78;;;-12.27;55.75
35918;BME280;22011;59.912;30.300;2023-01-08T10:30:49;102686.22;;;-12.34;55.87
35918;BME280;22011;59.912;30.300;2023-01-08T10:33:20;102674.19;;;-12.38;55.99
35918;BME280;22011;59.912;30.300;2023-01-08T10:35:51;102674.09;;;-12.43;56.56
35918;BME280;22011;59.912;30.300;2023-01-08T10:38:23;102671.81;;;-12.26;56.75
35918;BME280;22011;59.912;30.300;2023-01-08T10:40:52;102679.28;;;-12.40;56.18
35918;BME280;22011;59.912;30.300;2023-01-08T10:43:21;102671.59;;;-12.38;56.52
35918;BME280;22011;59.912;30.300;2023-01-08T10:45:57;102670.13;;;-12.24;56.71
35918;BME280;22011;59.912;30.300;2023-01-08T10:48:34;102657.38;;;-12.19;56.65
35918;BME280;22011;59.912;30.300;2023-01-08T10:51:05;102673.59;;;-12.22;56.07
35918;BME280;22011;59.912;30.300;2023-01-08T10:53:32;102669.28;;;-12.25;56.27
35918;BME280;22011;59.912;30.300;2023-01-08T10:56:03;102668.47;;;-12.20;56.47
35918;BME280;22011;59.912;30.300;2023-01-08T10:58:40;102665.25;;;-12.09;56.75
35918;BME280;22011;59.912;30.300;2023-01-08T11:01:09;102665.28;;;-12.06;56.82
35918;BME280;22011;59.912;30.300;2023-01-08T11:03:39;102662.94;;;-11.92;57.08
35918;BME280;22011;59.912;30.300;2023-01-08T11:06:11;102663.13;;;-11.80;56.74
35918;BME280;22011;59.912;30.300;2023-01-08T11:08:49;102663.31;;;-11.65;56.84
35918;BME280;22011;59.912;30.300;2023-01-08T11:11:16;102653.09;;;-11.59;56.44
35918;BME280;22011;59.912;30.300;2023-01-08T11:13:55;102635.28;;;-11.45;56.24
35918;BME280;22011;59.912;30.300;2023-01-08T11:16:32;102636.13;;;-11.46;56.18
35918;BME280;22011;59.912;30.300;2023-01-08T11:19:02;102640.44;;;-11.40;56.11
35918;BME280;22011;59.912;30.300;2023-01-08T11:21:31;102653.44;;;-11.31;56.00
35918;BME280;22011;59.912;30.300;2023-01-08T11:24:10;102656.94;;;-11.25;56.11
35918;BME280;22011;59.912;30.300;2023-01-08T11:26:45;102649.22;;;-11.25;55.89
35918;BME280;22011;59.912;30.300;2023-01-08T11:29:17;102650.06;;;-11.26;55.63
35918;BME280;22011;59.912;30.300;2023-01-08T11:31:50;102652.72;;;-11.19;55.97
35918;BME280;22011;59.912;30.300;2023-01-08T11:34:25;102639.03;;;-11.17;56.40
35918;BME280;22011;59.912;30.300;2023-01-08T11:37:00;102639.13;;;-11.08;56.21
35918;BME280;22011;59.912;30.300;2023-01-08T11:39:30;102628.22;;;-10.84;55.26
35918;BME280;22011;59.912;30.300;2023-01-08T11:45:02;102632.25;;;-11.09;55.79
35918;BME280;22011;59.912;30.300;2023-01-08T11:47:53;102630.56;;;-11.07;55.55
35918;BME280;22011;59.912;30.300;2023-01-08T11:50:28;102631.34;;;-11.14;55.51
35918;BME280;22011;59.912;30.300;2023-01-08T11:53:14;102633.88;;;-11.15;55.77
35918;BME280;22011;59.912;30.300;2023-01-08T11:55:51;102629.56;;;-11.19;55.99
35918;BME280;22011;59.912;30.300;2023-01-08T11:58:29;102627.06;;;-11.12;55.99
35918;BME280;22011;59.912;30.300;2023-01-08T12:01:11;102624.47;;;-11.13;55.88
35918;BME280;22011;59.912;30.300;2023-01-08T12:03:41;102626.19;;;-11.14;55.87
35918;BME280;22011;59.912;30.300;2023-01-08T12:06:21;102624.50;;;-11.12;56.16
35918;BME280;22011;59.912;30.300;2023-01-08T12:08:58;102615.94;;;-11.11;56.33
35918;BME280;22011;59.912;30.300;2023-01-08T12:11:31;102614.31;;;-11.03;56.27
35918;BME280;22011;59.912;30.300;2023-01-08T12:14:16;102598.91;;;-10.97;56.34
35918;BME280;22011;59.912;30.300;2023-01-08T12:17:00;102607.56;;;-10.92;56.09
35918;BME280;22011;59.912;30.300;2023-01-08T12:19:45;102604.13;;;-10.91;56.25
35918;BME280;22011;59.912;30.300;2023-01-08T12:22:28;102593.94;;;-10.78;56.68
35918;BME280;22011;59.912;30.300;2023-01-08T12:28:00;102588.00;;;-10.71;55.96
35918;BME280;22011;59.912;30.300;2023-01-08T12:30:37;102576.84;;;-10.72;55.96
35918;BME280;22011;59.912;30.300;2023-01-08T12:33:13;102575.16;;;-10.68;55.65
35918;BME280;22011;59.912;30.300;2023-01-08T12:35:47;102566.63;;;-10.63;55.15
35918;BME280;22011;59.912;30.300;2023-01-08T12:38:21;102561.53;;;-10.55;55.49
35918;BME280;22011;59.912;30.300;2023-01-08T12:40:56;102563.25;;;-10.54;55.34
35918;BME280;22011;59.912;30.300;2023-01-08T12:43:27;102571.00;;;-10.54;55.98
35918;BME280;22011;59.912;30.300;2023-01-08T12:45:58;102576.09;;;-10.60;55.85
35918;BME280;22011;59.912;30.300;2023-01-08T12:48:31;102567.50;;;-10.61;56.15
35918;BME280;22011;59.912;30.300;2023-01-08T12:51:02;102568.38;;;-10.57;56.20
35918;BME280;22011;59.912;30.300;2023-01-08T12:53:41;102569.25;;;-10.55;56.05